^^
Meteo Knjazevac Station Historical Data
Daily Summary for January 25, 2021 Units:  Both    English   Metric
Daily Weekly Monthly Yearly Custom
  High: Low: Average:
Temperature: 51.8 °F /  11 °C 47 °F /  8.3 °C 48.9 °F /  9.4 °C
Dew Point: 46.7 °F /  8.2 °C 43.7 °F /  6.5 °C 45 °F /  7.2 °C
Humidity: 90% 81% 86%
Wind Speed: 3mph /  4.8km/h - 0.9mph /  1.4km/h
Wind Gust: 7mph /  11.3km/h - -
Wind- - SW
Pressure: 30.20 in /  1022.6 hPa 30.13 in /  1020.2 hPa -
Precipitation: 0.00 in /  0 mm    
Historical Graphs
 
 
Tabular Data for January 25, 2021
Time Temperature Dew Point Pressure Wind Wind Speed Wind Gust Humidity Rainfall Rate (Hourly) solar Conditions
00:00 51.8 °F /  11 °C 46.2 °F /  7.9 °C 30.13in /  1020.2hPa Calm   2mph /  3.2km/h 81% 0.00in /  0mm 0 W/m2
00:10 51.4 °F /  10.8 °C 45.8 °F /  7.7 °C 30.13in /  1020.2hPa Calm     81% 0.00in /  0mm 0 W/m2
00:20 51.3 °F /  10.7 °C 46.3 °F /  7.9 °C 30.13in /  1020.2hPa North 1mph /  1.6km/h 2mph /  3.2km/h 83% 0.00in /  0mm 0 W/m2
00:30 50.9 °F /  10.5 °C 45.9 °F /  7.7 °C 30.13in /  1020.2hPa Calm   2mph /  3.2km/h 83% 0.00in /  0mm 0 W/m2
00:40 50.4 °F /  10.2 °C 45.4 °F /  7.4 °C 30.14in /  1020.5hPa Calm   2mph /  3.2km/h 83% 0.00in /  0mm 0 W/m2
00:50 49.7 °F /  9.8 °C 44.8 °F /  7.1 °C 30.14in /  1020.5hPa WNW 2mph /  3.2km/h 3mph /  4.8km/h 83% 0.00in /  0mm 0 W/m2
01:00 49.5 °F /  9.7 °C 44.8 °F /  7.1 °C 30.14in /  1020.5hPa NW 2mph /  3.2km/h 5mph /  8km/h 84% 0.00in /  0mm 0 W/m2
01:10 49.6 °F /  9.8 °C 45.3 °F /  7.4 °C 30.14in /  1020.5hPa Calm   2mph /  3.2km/h 85% 0.00in /  0mm 0 W/m2
01:20 49.5 °F /  9.7 °C 44.8 °F /  7.1 °C 30.14in /  1020.5hPa Calm   2mph /  3.2km/h 84% 0.00in /  0mm 0 W/m2
01:30 49.3 °F /  9.6 °C 45 °F /  7.2 °C 30.14in /  1020.5hPa Calm   2mph /  3.2km/h 85% 0.00in /  0mm 0 W/m2
01:40 48.9 °F /  9.4 °C 44.6 °F /  7 °C 30.14in /  1020.5hPa NNW 1mph /  1.6km/h 2mph /  3.2km/h 85% 0.00in /  0mm 0 W/m2
01:50 48.9 °F /  9.4 °C 44.9 °F /  7.2 °C 30.14in /  1020.5hPa NNE 1mph /  1.6km/h 2mph /  3.2km/h 86% 0.00in /  0mm 0 W/m2
02:00 49.1 °F /  9.5 °C 45.1 °F /  7.3 °C 30.15in /  1020.9hPa NE 2mph /  3.2km/h 5mph /  8km/h 86% 0.00in /  0mm 0 W/m2
02:10 49.8 °F /  9.9 °C 46.1 °F /  7.8 °C 30.14in /  1020.5hPa Calm   7mph /  11.3km/h 87% 0.00in /  0mm 0 W/m2
02:20 49.6 °F /  9.8 °C 45.3 °F /  7.4 °C 30.15in /  1020.9hPa Calm   6mph /  9.7km/h 85% 0.00in /  0mm 0 W/m2
02:30 49 °F /  9.4 °C 44.4 °F /  6.9 °C 30.15in /  1020.9hPa North 1mph /  1.6km/h 3mph /  4.8km/h 84% 0.00in /  0mm 0 W/m2
02:40 48.9 °F /  9.4 °C 44.9 °F /  7.2 °C 30.15in /  1020.9hPa NNE 1mph /  1.6km/h 2mph /  3.2km/h 86% 0.00in /  0mm 0 W/m2
02:50 48.7 °F /  9.3 °C 44.7 °F /  7.1 °C 30.15in /  1020.9hPa NNW 1mph /  1.6km/h 2mph /  3.2km/h 86% 0.00in /  0mm 0 W/m2
03:00 48.6 °F /  9.2 °C 44.6 °F /  7 °C 30.15in /  1020.9hPa NW 1mph /  1.6km/h 4mph /  6.4km/h 86% 0.00in /  0mm 0 W/m2
03:10 48.4 °F /  9.1 °C 44.4 °F /  6.9 °C 30.16in /  1021.2hPa Calm   2mph /  3.2km/h 86% 0.00in /  0mm 0 W/m2
03:20 48 °F /  8.9 °C 44.6 °F /  7 °C 30.16in /  1021.2hPa NNW 1mph /  1.6km/h 2mph /  3.2km/h 88% 0.00in /  0mm 0 W/m2
03:30 47.8 °F /  8.8 °C 43.9 °F /  6.6 °C 30.16in /  1021.2hPa WNW 1mph /  1.6km/h 2mph /  3.2km/h 86% 0.00in /  0mm 0 W/m2
03:40 47.6 °F /  8.7 °C 44.2 °F /  6.8 °C 30.16in /  1021.2hPa NNW 1mph /  1.6km/h 3mph /  4.8km/h 88% 0.00in /  0mm 0 W/m2
03:50 47.5 °F /  8.6 °C 44.1 °F /  6.7 °C 30.16in /  1021.2hPa NNW 2mph /  3.2km/h 3mph /  4.8km/h 88% 0.00in /  0mm 0 W/m2
04:00 47.5 °F /  8.6 °C 44.4 °F /  6.9 °C 30.17in /  1021.6hPa NNW 1mph /  1.6km/h 4mph /  6.4km/h 89% 0.00in /  0mm 0 W/m2
04:10 47.5 °F /  8.6 °C 44.4 °F /  6.9 °C 30.17in /  1021.6hPa North 2mph /  3.2km/h 4mph /  6.4km/h 89% 0.00in /  0mm 0 W/m2
04:20 47.7 °F /  8.7 °C 44.9 °F /  7.2 °C 30.17in /  1021.6hPa NE 2mph /  3.2km/h 4mph /  6.4km/h 90% 0.00in /  0mm 0 W/m2
04:30 48.3 °F /  9.1 °C 45.5 °F /  7.5 °C 30.17in /  1021.6hPa NE 1mph /  1.6km/h 3mph /  4.8km/h 90% 0.00in /  0mm 0 W/m2
04:40 48.6 °F /  9.2 °C 45.8 °F /  7.7 °C 30.17in /  1021.6hPa NNE 1mph /  1.6km/h 3mph /  4.8km/h 90% 0.00in /  0mm 0 W/m2
04:50 48.9 °F /  9.4 °C 46.1 °F /  7.8 °C 30.18in /  1021.9hPa ENE 3mph /  4.8km/h 6mph /  9.7km/h 90% 0.00in /  0mm 0 W/m2
05:00 49.8 °F /  9.9 °C 46.7 °F /  8.2 °C 30.18in /  1021.9hPa East 1mph /  1.6km/h 6mph /  9.7km/h 89% 0.00in /  0mm 0 W/m2
05:10 49.8 °F /  9.9 °C 46.3 °F /  7.9 °C 30.18in /  1021.9hPa NE 2mph /  3.2km/h 4mph /  6.4km/h 88% 0.00in /  0mm 0 W/m2
05:20 49.3 °F /  9.6 °C 45.3 °F /  7.4 °C 30.19in /  1022.2hPa NNW 1mph /  1.6km/h 4mph /  6.4km/h 86% 0.00in /  0mm 0 W/m2
05:30 48.7 °F /  9.3 °C 44.7 °F /  7.1 °C 30.19in /  1022.2hPa WNW 1mph /  1.6km/h 3mph /  4.8km/h 86% 0.00in /  0mm 0 W/m2
05:40 47.9 °F /  8.8 °C 43.9 °F /  6.6 °C 30.19in /  1022.2hPa Calm   3mph /  4.8km/h 86% 0.00in /  0mm 0 W/m2
05:50 47.5 °F /  8.6 °C 44.1 °F /  6.7 °C 30.19in /  1022.2hPa NW 1mph /  1.6km/h 3mph /  4.8km/h 88% 0.00in /  0mm 0 W/m2
06:00 47.1 °F /  8.4 °C 43.7 °F /  6.5 °C 30.19in /  1022.2hPa WNW 1mph /  1.6km/h 4mph /  6.4km/h 88% 0.00in /  0mm 0 W/m2
06:10 47 °F /  8.3 °C 43.9 °F /  6.6 °C 30.19in /  1022.2hPa Calm   2mph /  3.2km/h 89% 0.00in /  0mm 0 W/m2
06:20 47.1 °F /  8.4 °C 44.3 °F /  6.8 °C 30.20in /  1022.6hPa Calm   3mph /  4.8km/h 90% 0.00in /  0mm 0 W/m2
06:30 47.1 °F /  8.4 °C 44.3 °F /  6.8 °C 30.20in /  1022.6hPa Calm   2mph /  3.2km/h 90% 0.00in /  0mm 8 W/m2
Knjazevac, Serbia
Compliments of Weather Underground - 2 mb